sensor_id;sensor_type;location;lat;lon;timestamp;temperature;humidity
7117;DHT22;3600;48.568;7.870;2023-11-18T00:02:14;7.30;99.90
7117;DHT22;3600;48.568;7.870;2023-11-18T00:04:41;7.40;99.90
7117;DHT22;3600;48.568;7.870;2023-11-18T00:07:08;7.40;99.90
7117;DHT22;3600;48.568;7.870;2023-11-18T00:09:36;7.30;99.90
7117;DHT22;3600;48.568;7.870;2023-11-18T00:12:03;7.30;99.90
7117;DHT22;3600;48.568;7.870;2023-11-18T00:14:30;7.30;99.90
7117;DHT22;3600;48.568;7.870;2023-11-18T00:16:57;7.30;99.90
7117;DHT22;3600;48.568;7.870;2023-11-18T00:19:25;7.30;99.90
7117;DHT22;3600;48.568;7.870;2023-11-18T00:21:53;7.30;99.90
7117;DHT22;3600;48.568;7.870;2023-11-18T00:24:20;7.30;99.90
7117;DHT22;3600;48.568;7.870;2023-11-18T00:26:47;7.30;99.90
7117;DHT22;3600;48.568;7.870;2023-11-18T00:29:14;7.20;99.90
7117;DHT22;3600;48.568;7.870;2023-11-18T00:31:41;7.20;99.90
7117;DHT22;3600;48.568;7.870;2023-11-18T00:34:08;7.20;99.90
7117;DHT22;3600;48.568;7.870;2023-11-18T00:36:35;7.20;99.90
7117;DHT22;3600;48.568;7.870;2023-11-18T00:39:02;7.20;99.90
7117;DHT22;3600;48.568;7.870;2023-11-18T00:41:30;7.20;99.90
7117;DHT22;3600;48.568;7.870;2023-11-18T00:43:57;7.20;99.90
7117;DHT22;3600;48.568;7.870;2023-11-18T00:46:24;7.20;99.90
7117;DHT22;3600;48.568;7.870;2023-11-18T00:48:51;7.20;99.90
7117;DHT22;3600;48.568;7.870;2023-11-18T00:51:18;7.20;99.90
7117;DHT22;3600;48.568;7.870;2023-11-18T00:53:45;7.10;99.90
7117;DHT22;3600;48.568;7.870;2023-11-18T00:56:15;7.20;99.90
7117;DHT22;3600;48.568;7.870;2023-11-18T00:58:44;7.20;99.90
7117;DHT22;3600;48.568;7.870;2023-11-18T01:01:11;7.20;99.90
7117;DHT22;3600;48.568;7.870;2023-11-18T01:03:38;7.20;99.90
7117;DHT22;3600;48.568;7.870;2023-11-18T01:06:05;7.20;99.90
7117;DHT22;3600;48.568;7.870;2023-11-18T01:08:33;7.20;99.90
7117;DHT22;3600;48.568;7.870;2023-11-18T01:10:59;7.10;99.90
7117;DHT22;3600;48.568;7.870;2023-11-18T01:13:26;7.10;99.90
7117;DHT22;3600;48.568;7.870;2023-11-18T01:15:53;7.10;99.90
7117;DHT22;3600;48.568;7.870;2023-11-18T01:18:20;7.10;99.90
7117;DHT22;3600;48.568;7.870;2023-11-18T01:20:47;7.20;99.90
7117;DHT22;3600;48.568;7.870;2023-11-18T01:23:15;7.20;99.90
7117;DHT22;3600;48.568;7.870;2023-11-18T01:25:42;7.30;99.90
7117;DHT22;3600;48.568;7.870;2023-11-18T01:28:10;7.30;99.90
7117;DHT22;3600;48.568;7.870;2023-11-18T01:30:37;7.30;99.90
7117;DHT22;3600;48.568;7.870;2023-11-18T01:33:04;7.30;99.90
7117;DHT22;3600;48.568;7.870;2023-11-18T01:35:31;7.30;99.90
7117;DHT22;3600;48.568;7.870;2023-11-18T01:37:58;7.20;99.90
7117;DHT22;3600;48.568;7.870;2023-11-18T01:40:25;7.20;99.90
7117;DHT22;3600;48.568;7.870;2023-11-18T01:42:52;7.20;99.90
7117;DHT22;3600;48.568;7.870;2023-11-18T01:45:19;7.10;99.90
7117;DHT22;3600;48.568;7.870;2023-11-18T01:47:46;7.10;99.90
7117;DHT22;3600;48.568;7.870;2023-11-18T01:50:16;7.10;99.90
7117;DHT22;3600;48.568;7.870;2023-11-18T01:52:45;7.00;99.90
7117;DHT22;3600;48.568;7.870;2023-11-18T01:55:13;7.00;99.90
7117;DHT22;3600;48.568;7.870;2023-11-18T01:57:40;7.00;99.90
7117;DHT22;3600;48.568;7.870;2023-11-18T02:00:11;7.00;99.90
7117;DHT22;3600;48.568;7.870;2023-11-18T02:02:39;6.90;99.90
7117;DHT22;3600;48.568;7.870;2023-11-18T02:05:07;6.90;99.90
7117;DHT22;3600;48.568;7.870;2023-11-18T02:07:34;6.90;99.90
7117;DHT22;3600;48.568;7.870;2023-11-18T02:10:04;6.90;99.90
7117;DHT22;3600;48.568;7.870;2023-11-18T02:12:44;6.80;99.90
7117;DHT22;3600;48.568;7.870;2023-11-18T02:15:15;6.80;99.90
7117;DHT22;3600;48.568;7.870;2023-11-18T02:17:43;6.80;99.90
7117;DHT22;3600;48.568;7.870;2023-11-18T02:20:12;6.80;99.90
7117;DHT22;3600;48.568;7.870;2023-11-18T02:22:44;6.70;99.90
7117;DHT22;3600;48.568;7.870;2023-11-18T02:25:17;6.70;99.90
7117;DHT22;3600;48.568;7.870;2023-11-18T02:27:45;6.70;99.90
7117;DHT22;3600;48.568;7.870;2023-11-18T02:30:13;6.60;99.90
7117;DHT22;3600;48.568;7.870;2023-11-18T02:32:58;6.60;99.90
7117;DHT22;3600;48.568;7.870;2023-11-18T02:35:41;6.60;99.90
7117;DHT22;3600;48.568;7.870;2023-11-18T02:38:19;6.50;99.90
7117;DHT22;3600;48.568;7.870;2023-11-18T02:40:52;6.50;99.90
7117;DHT22;3600;48.568;7.870;2023-11-18T02:43:24;6.50;99.90
7117;DHT22;3600;48.568;7.870;2023-11-18T02:45:57;6.50;99.90
7117;DHT22;3600;48.568;7.870;2023-11-18T02:48:26;6.40;99.90
7117;DHT22;3600;48.568;7.870;2023-11-18T02:50:54;6.40;99.90
7117;DHT22;3600;48.568;7.870;2023-11-18T02:53:21;6.40;99.90
7117;DHT22;3600;48.568;7.870;2023-11-18T02:55:48;6.40;99.90
7117;DHT22;3600;48.568;7.870;2023-11-18T02:58:19;6.40;99.90
7117;DHT22;3600;48.568;7.870;2023-11-18T03:00:46;6.40;99.90
7117;DHT22;3600;48.568;7.870;2023-11-18T03:03:19;6.40;99.90
7117;DHT22;3600;48.568;7.870;2023-11-18T03:05:47;6.40;99.90
7117;DHT22;3600;48.568;7.870;2023-11-18T03:08:16;6.40;99.90
7117;DHT22;3600;48.568;7.870;2023-11-18T03:10:43;6.40;99.90
7117;DHT22;3600;48.568;7.870;2023-11-18T03:13:11;6.30;99.90
7117;DHT22;3600;48.568;7.870;2023-11-18T03:15:38;6.40;99.90
7117;DHT22;3600;48.568;7.870;2023-11-18T03:18:05;6.40;99.90
7117;DHT22;3600;48.568;7.870;2023-11-18T03:20:33;6.30;99.90
7117;DHT22;3600;48.568;7.870;2023-11-18T03:23:00;6.20;99.90
7117;DHT22;3600;48.568;7.870;2023-11-18T03:25:28;6.20;99.90
7117;DHT22;3600;48.568;7.870;2023-11-18T03:27:55;6.20;99.90
7117;DHT22;3600;48.568;7.870;2023-11-18T03:30:22;6.20;99.90
7117;DHT22;3600;48.568;7.870;2023-11-18T03:32:48;6.20;99.90
7117;DHT22;3600;48.568;7.870;2023-11-18T03:35:15;6.20;99.90
7117;DHT22;3600;48.568;7.870;2023-11-18T03:37:42;6.20;99.90
7117;DHT22;3600;48.568;7.870;2023-11-18T03:40:12;6.20;99.90
7117;DHT22;3600;48.568;7.870;2023-11-18T03:42:40;6.20;99.90
7117;DHT22;3600;48.568;7.870;2023-11-18T03:45:08;6.10;99.90
7117;DHT22;3600;48.568;7.870;2023-11-18T03:47:36;6.10;99.90
7117;DHT22;3600;48.568;7.870;2023-11-18T03:50:03;6.10;99.90
7117;DHT22;3600;48.568;7.870;2023-11-18T03:52:30;6.00;99.90
7117;DHT22;3600;48.568;7.870;2023-11-18T03:54:57;6.00;99.90
7117;DHT22;3600;48.568;7.870;2023-11-18T03:57:24;6.00;99.90
7117;DHT22;3600;48.568;7.870;2023-11-18T03:59:51;6.00;99.90
7117;DHT22;3600;48.568;7.870;2023-11-18T04:02:18;6.00;99.90
7117;DHT22;3600;48.568;7.870;2023-11-18T04:04:45;6.00;99.90
7117;DHT22;3600;48.568;7.870;2023-11-18T04:07:12;6.00;99.90
7117;DHT22;3600;48.568;7.870;2023-11-18T04:09:39;6.00;99.90
7117;DHT22;3600;48.568;7.870;2023-11-18T04:12:08;6.00;99.90
7117;DHT22;3600;48.568;7.870;2023-11-18T04:14:36;5.90;99.90
7117;DHT22;3600;48.568;7.870;2023-11-18T04:17:03;5.90;99.90
7117;DHT22;3600;48.568;7.870;2023-11-18T04:19:30;5.90;99.90
7117;DHT22;3600;48.568;7.870;2023-11-18T04:21:57;5.90;99.90
7117;DHT22;3600;48.568;7.870;2023-11-18T04:24:24;5.90;99.90
7117;DHT22;3600;48.568;7.870;2023-11-18T04:26:51;5.90;99.90
7117;DHT22;3600;48.568;7.870;2023-11-18T04:29:18;5.90;99.90
7117;DHT22;3600;48.568;7.870;2023-11-18T04:31:45;5.90;99.90
7117;DHT22;3600;48.568;7.870;2023-11-18T04:34:12;5.80;99.90
7117;DHT22;3600;48.568;7.870;2023-11-18T04:36:41;5.80;99.90
7117;DHT22;3600;48.568;7.870;2023-11-18T04:42:31;5.80;99.90
7117;DHT22;3600;48.568;7.870;2023-11-18T04:44:58;5.80;99.90
7117;DHT22;3600;48.568;7.870;2023-11-18T04:47:24;5.80;99.90
7117;DHT22;3600;48.568;7.870;2023-11-18T04:49:54;5.80;99.90
7117;DHT22;3600;48.568;7.870;2023-11-18T04:52:21;5.80;99.90
7117;DHT22;3600;48.568;7.870;2023-11-18T04:54:48;5.70;99.90
7117;DHT22;3600;48.568;7.870;2023-11-18T04:57:15;5.70;99.90
7117;DHT22;3600;48.568;7.870;2023-11-18T04:59:42;5.70;99.90
7117;DHT22;3600;48.568;7.870;2023-11-18T05:02:10;5.70;99.90
7117;DHT22;3600;48.568;7.870;2023-11-18T05:04:37;5.70;99.90
7117;DHT22;3600;48.568;7.870;2023-11-18T05:07:04;5.70;99.90
7117;DHT22;3600;48.568;7.870;2023-11-18T05:09:32;5.60;99.90
7117;DHT22;3600;48.568;7.870;2023-11-18T05:11:59;5.60;99.90
7117;DHT22;3600;48.568;7.870;2023-11-18T05:14:25;5.40;99.90
7117;DHT22;3600;48.568;7.870;2023-11-18T05:16:53;5.40;99.90
7117;DHT22;3600;48.568;7.870;2023-11-18T05:19:20;5.40;99.90
7117;DHT22;3600;48.568;7.870;2023-11-18T05:21:47;5.40;99.90
7117;DHT22;3600;48.568;7.870;2023-11-18T05:24:16;5.50;99.90
7117;DHT22;3600;48.568;7.870;2023-11-18T05:26:43;5.40;99.90
7117;DHT22;3600;48.568;7.870;2023-11-18T05:29:10;5.30;99.90
7117;DHT22;3600;48.568;7.870;2023-11-18T05:31:43;5.20;99.90
7117;DHT22;3600;48.568;7.870;2023-11-18T05:34:10;5.10;99.90
7117;DHT22;3600;48.568;7.870;2023-11-18T05:36:37;5.10;99.90
7117;DHT22;3600;48.568;7.870;2023-11-18T05:39:04;5.00;99.90
7117;DHT22;3600;48.568;7.870;2023-11-18T05:41:36;5.00;99.90
7117;DHT22;3600;48.568;7.870;2023-11-18T05:44:07;5.00;99.90
7117;DHT22;3600;48.568;7.870;2023-11-18T05:46:43;5.10;99.90
7117;DHT22;3600;48.568;7.870;2023-11-18T05:49:13;5.10;99.90
7117;DHT22;3600;48.568;7.870;2023-11-18T05:51:40;5.00;99.90
7117;DHT22;3600;48.568;7.870;2023-11-18T05:54:07;5.00;99.90
7117;DHT22;3600;48.568;7.870;2023-11-18T05:56:34;5.10;99.90
7117;DHT22;3600;48.568;7.870;2023-11-18T05:59:01;5.10;99.90
7117;DHT22;3600;48.568;7.870;2023-11-18T06:01:31;5.20;99.90
7117;DHT22;3600;48.568;7.870;2023-11-18T06:03:58;5.20;99.90
7117;DHT22;3600;48.568;7.870;2023-11-18T06:06:28;5.20;99.90
7117;DHT22;3600;48.568;7.870;2023-11-18T06:08:55;5.20;99.90
7117;DHT22;3600;48.568;7.870;2023-11-18T06:11:24;5.20;99.90
7117;DHT22;3600;48.568;7.870;2023-11-18T06:13:52;5.20;99.90
7117;DHT22;3600;48.568;7.870;2023-11-18T06:16:21;5.20;99.90
7117;DHT22;3600;48.568;7.870;2023-11-18T06:18:50;5.30;99.90
7117;DHT22;3600;48.568;7.870;2023-11-18T06:21:22;5.30;99.90
7117;DHT22;3600;48.568;7.870;2023-11-18T06:23:54;5.40;99.90
7117;DHT22;3600;48.568;7.870;2023-11-18T06:26:24;5.40;99.90
7117;DHT22;3600;48.568;7.870;2023-11-18T06:28:54;5.40;99.90
7117;DHT22;3600;48.568;7.870;2023-11-18T06:31:21;5.40;99.90
7117;DHT22;3600;48.568;7.870;2023-11-18T06:33:50;5.40;99.90
7117;DHT22;3600;48.568;7.870;2023-11-18T06:36:22;5.30;99.90
7117;DHT22;3600;48.568;7.870;2023-11-18T06:38:50;5.30;99.90
7117;DHT22;3600;48.568;7.870;2023-11-18T06:41:19;5.30;99.90
7117;DHT22;3600;48.568;7.870;2023-11-18T06:43:46;5.40;99.90
7117;DHT22;3600;48.568;7.870;2023-11-18T06:48:52;5.50;99.90
7117;DHT22;3600;48.568;7.870;2023-11-18T06:51:25;5.50;99.90
7117;DHT22;3600;48.568;7.870;2023-11-18T06:53:54;5.50;99.90
7117;DHT22;3600;48.568;7.870;2023-11-18T06:56:24;5.50;99.90
7117;DHT22;3600;48.568;7.870;2023-11-18T06:58:51;5.40;99.90
7117;DHT22;3600;48.568;7.870;2023-11-18T07:01:19;5.50;99.90
7117;DHT22;3600;48.568;7.870;2023-11-18T07:03:47;5.50;99.90
7117;DHT22;3600;48.568;7.870;2023-11-18T07:06:20;5.50;99.90
7117;DHT22;3600;48.568;7.870;2023-11-18T07:08:49;5.50;99.90
7117;DHT22;3600;48.568;7.870;2023-11-18T07:11:16;5.50;99.90
7117;DHT22;3600;48.568;7.870;2023-11-18T07:13:44;5.60;99.90
7117;DHT22;3600;48.568;7.870;2023-11-18T07:16:12;5.50;99.90
7117;DHT22;3600;48.568;7.870;2023-11-18T07:18:39;5.50;99.90
7117;DHT22;3600;48.568;7.870;2023-11-18T07:21:06;5.60;99.90
7117;DHT22;3600;48.568;7.870;2023-11-18T07:23:33;5.60;99.90
7117;DHT22;3600;48.568;7.870;2023-11-18T07:26:01;5.60;99.90
7117;DHT22;3600;48.568;7.870;2023-11-18T07:28:28;5.60;99.90
7117;DHT22;3600;48.568;7.870;2023-11-18T07:30:55;5.60;99.90
7117;DHT22;3600;48.568;7.870;2023-11-18T07:33:22;5.60;99.90
7117;DHT22;3600;48.568;7.870;2023-11-18T07:35:49;5.60;99.90
7117;DHT22;3600;48.568;7.870;2023-11-18T07:38:16;5.70;99.90
7117;DHT22;3600;48.568;7.870;2023-11-18T07:40:46;5.70;99.90
7117;DHT22;3600;48.568;7.870;2023-11-18T07:43:15;5.70;99.90
7117;DHT22;3600;48.568;7.870;2023-11-18T07:45:41;5.70;99.90
7117;DHT22;3600;48.568;7.870;2023-11-18T07:48:12;5.70;99.90
7117;DHT22;3600;48.568;7.870;2023-11-18T07:50:40;5.80;99.90
7117;DHT22;3600;48.568;7.870;2023-11-18T07:53:07;5.80;99.90
7117;DHT22;3600;48.568;7.870;2023-11-18T07:55:35;5.80;99.90
7117;DHT22;3600;48.568;7.870;2023-11-18T07:58:07;5.80;99.90
7117;DHT22;3600;48.568;7.870;2023-11-18T08:00:40;5.80;99.90
7117;DHT22;3600;48.568;7.870;2023-11-18T08:03:08;5.80;99.90
7117;DHT22;3600;48.568;7.870;2023-11-18T08:05:39;5.80;99.90
7117;DHT22;3600;48.568;7.870;2023-11-18T08:08:12;5.80;99.90
7117;DHT22;3600;48.568;7.870;2023-11-18T08:10:43;5.90;99.90
7117;DHT22;3600;48.568;7.870;2023-11-18T08:13:11;5.90;99.90
7117;DHT22;3600;48.568;7.870;2023-11-18T08:15:41;6.00;99.90
7117;DHT22;3600;48.568;7.870;2023-11-18T08:18:08;6.00;99.90
7117;DHT22;3600;48.568;7.870;2023-11-18T08:20:39;6.00;99.90
7117;DHT22;3600;48.568;7.870;2023-11-18T08:23:05;6.00;99.90
7117;DHT22;3600;48.568;7.870;2023-11-18T08:25:33;6.00;99.90
7117;DHT22;3600;48.568;7.870;2023-11-18T08:28:03;6.10;99.90
7117;DHT22;3600;48.568;7.870;2023-11-18T08:30:31;6.10;99.90
7117;DHT22;3600;48.568;7.870;2023-11-18T08:33:01;6.10;99.90
7117;DHT22;3600;48.568;7.870;2023-11-18T08:35:32;6.20;99.90
7117;DHT22;3600;48.568;7.870;2023-11-18T08:37:59;6.30;99.90
7117;DHT22;3600;48.568;7.870;2023-11-18T08:40:27;6.30;99.90
7117;DHT22;3600;48.568;7.870;2023-11-18T08:42:54;6.40;99.90
7117;DHT22;3600;48.568;7.870;2023-11-18T08:45:24;6.50;99.90
7117;DHT22;3600;48.568;7.870;2023-11-18T08:47:57;6.50;99.90
7117;DHT22;3600;48.568;7.870;2023-11-18T08:50:25;6.50;99.90
7117;DHT22;3600;48.568;7.870;2023-11-18T08:52:55;6.60;99.90
7117;DHT22;3600;48.568;7.870;2023-11-18T08:55:30;6.60;99.90
7117;DHT22;3600;48.568;7.870;2023-11-18T08:58:11;6.70;99.90
7117;DHT22;3600;48.568;7.870;2023-11-18T09:00:57;6.70;99.90
7117;DHT22;3600;48.568;7.870;2023-11-18T09:03:41;6.80;99.90
7117;DHT22;3600;48.568;7.870;2023-11-18T09:06:19;6.80;99.90
7117;DHT22;3600;48.568;7.870;2023-11-18T09:08:54;6.90;99.90
7117;DHT22;3600;48.568;7.870;2023-11-18T09:11:24;6.90;99.90
7117;DHT22;3600;48.568;7.870;2023-11-18T09:13:55;7.00;99.90
7117;DHT22;3600;48.568;7.870;2023-11-18T09:16:28;7.00;99.90
7117;DHT22;3600;48.568;7.870;2023-11-18T09:18:57;7.00;99.90
7117;DHT22;3600;48.568;7.870;2023-11-18T09:21:28;7.00;99.90
7117;DHT22;3600;48.568;7.870;2023-11-18T09:23:57;7.10;99.90
7117;DHT22;3600;48.568;7.870;2023-11-18T09:26:24;7.10;99.90
7117;DHT22;3600;48.568;7.870;2023-11-18T09:28:53;7.10;99.90
7117;DHT22;3600;48.568;7.870;2023-11-18T09:31:20;7.10;99.90
7117;DHT22;3600;48.568;7.870;2023-11-18T09:33:48;7.10;99.90
7117;DHT22;3600;48.568;7.870;2023-11-18T09:36:20;7.20;99.90
7117;DHT22;3600;48.568;7.870;2023-11-18T09:38:48;7.20;99.90
7117;DHT22;3600;48.568;7.870;2023-11-18T09:41:16;7.30;99.90
7117;DHT22;3600;48.568;7.870;2023-11-18T09:43:45;7.30;99.90
7117;DHT22;3600;48.568;7.870;2023-11-18T09:46:17;7.30;99.90
7117;DHT22;3600;48.568;7.870;2023-11-18T09:48:52;7.20;99.90
7117;DHT22;3600;48.568;7.870;2023-11-18T09:51:22;7.30;99.90
7117;DHT22;3600;48.568;7.870;2023-11-18T09:53:53;7.30;99.90
7117;DHT22;3600;48.568;7.870;2023-11-18T09:59:32;7.40;99.90
7117;DHT22;3600;48.568;7.870;2023-11-18T10:02:03;7.40;99.90
7117;DHT22;3600;48.568;7.870;2023-11-18T10:04:41;7.40;99.90
7117;DHT22;3600;48.568;7.870;2023-11-18T10:07:09;7.40;99.90
7117;DHT22;3600;48.568;7.870;2023-11-18T10:09:37;7.40;99.90
7117;DHT22;3600;48.568;7.870;2023-11-18T10:12:07;7.40;99.90
7117;DHT22;3600;48.568;7.870;2023-11-18T10:14:35;7.40;99.90
7117;DHT22;3600;48.568;7.870;2023-11-18T10:17:06;7.40;99.90
7117;DHT22;3600;48.568;7.870;2023-11-18T10:19:58;7.40;99.90
7117;DHT22;3600;48.568;7.870;2023-11-18T10:22:39;7.40;99.90
7117;DHT22;3600;48.568;7.870;2023-11-18T10:25:07;7.50;99.90
7117;DHT22;3600;48.568;7.870;2023-11-18T10:27:34;7.50;99.90
7117;DHT22;3600;48.568;7.870;2023-11-18T10:30:05;7.50;99.90
7117;DHT22;3600;48.568;7.870;2023-11-18T10:33:00;7.50;99.90
7117;DHT22;3600;48.568;7.870;2023-11-18T10:35:34;7.60;99.90
7117;DHT22;3600;48.568;7.870;2023-11-18T10:38:04;7.60;99.90
7117;DHT22;3600;48.568;7.870;2023-11-18T10:40:32;7.60;99.90
7117;DHT22;3600;48.568;7.870;2023-11-18T10:43:04;7.60;99.90
7117;DHT22;3600;48.568;7.870;2023-11-18T10:45:37;7.60;99.90
7117;DHT22;3600;48.568;7.870;2023-11-18T10:48:11;7.70;99.90
7117;DHT22;3600;48.568;7.870;2023-11-18T10:50:39;7.70;99.90
7117;DHT22;3600;48.568;7.870;2023-11-18T10:53:06;7.70;99.90
7117;DHT22;3600;48.568;7.870;2023-11-18T10:55:38;7.70;99.90
7117;DHT22;3600;48.568;7.870;2023-11-18T10:58:07;7.70;99.90
7117;DHT22;3600;48.568;7.870;2023-11-18T11:00:51;7.70;99.90
7117;DHT22;3600;48.568;7.870;2023-11-18T11:03:22;7.70;99.90
7117;DHT22;3600;48.568;7.870;2023-11-18T11:05:53;7.80;99.90
7117;DHT22;3600;48.568;7.870;2023-11-18T11:08:21;7.70;99.90
7117;DHT22;3600;48.568;7.870;2023-11-18T11:11:02;7.70;99.90
7117;DHT22;3600;48.568;7.870;2023-11-18T11:13:34;7.80;99.90
7117;DHT22;3600;48.568;7.870;2023-11-18T11:16:06;7.70;99.90
7117;DHT22;3600;48.568;7.870;2023-11-18T11:18:39;7.70;99.90
7117;DHT22;3600;48.568;7.870;2023-11-18T11:21:20;7.70;99.90
7117;DHT22;3600;48.568;7.870;2023-11-18T11:26:49;7.70;99.90
7117;DHT22;3600;48.568;7.870;2023-11-18T11:29:35;7.80;99.90
7117;DHT22;3600;48.568;7.870;2023-11-18T11:32:14;7.80;99.90
7117;DHT22;3600;48.568;7.870;2023-11-18T11:34:56;7.80;99.90
7117;DHT22;3600;48.568;7.870;2023-11-18T11:37:32;7.80;99.90
7117;DHT22;3600;48.568;7.870;2023-11-18T11:40:02;7.70;99.90
7117;DHT22;3600;48.568;7.870;2023-11-18T11:42:35;7.80;99.90
7117;DHT22;3600;48.568;7.870;2023-11-18T11:45:03;7.70;99.90
7117;DHT22;3600;48.568;7.870;2023-11-18T11:47:31;7.80;99.90
7117;DHT22;3600;48.568;7.870;2023-11-18T11:50:13;7.80;99.90
7117;DHT22;3600;48.568;7.870;2023-11-18T11:52:45;7.70;99.90
7117;DHT22;3600;48.568;7.870;2023-11-18T11:55:29;7.70;99.90
7117;DHT22;3600;48.568;7.870;2023-11-18T11:58:01;7.70;99.90
7117;DHT22;3600;48.568;7.870;2023-11-18T12:00:27;7.70;99.90
7117;DHT22;3600;48.568;7.870;2023-11-18T12:03:02;7.70;99.90
7117;DHT22;3600;48.568;7.870;2023-11-18T12:05:31;7.70;99.90
7117;DHT22;3600;48.568;7.870;2023-11-18T12:08:00;7.80;99.90
7117;DHT22;3600;48.568;7.870;2023-11-18T12:10:31;7.80;99.90
7117;DHT22;3600;48.568;7.870;2023-11-18T12:15:50;7.80;99.90
7117;DHT22;3600;48.568;7.870;2023-11-18T12:18:21;7.80;99.90
7117;DHT22;3600;48.568;7.870;2023-11-18T12:20:49;7.80;99.90
7117;DHT22;3600;48.568;7.870;2023-11-18T12:23:24;7.80;99.90
7117;DHT22;3600;48.568;7.870;2023-11-18T12:25:53;7.80;99.90
7117;DHT22;3600;48.568;7.870;2023-11-18T12:28:26;7.80;99.90
7117;DHT22;3600;48.568;7.870;2023-11-18T12:30:54;7.80;99.90
7117;DHT22;3600;48.568;7.870;2023-11-18T12:33:25;7.80;99.90
7117;DHT22;3600;48.568;7.870;2023-11-18T12:41:41;7.80;99.90
7117;DHT22;3600;48.568;7.870;2023-11-18T12:46:50;7.80;99.90
7117;DHT22;3600;48.568;7.870;2023-11-18T12:49:24;7.80;99.90
7117;DHT22;3600;48.568;7.870;2023-11-18T12:51:52;7.80;99.90
7117;DHT22;3600;48.568;7.870;2023-11-18T12:54:20;7.90;99.90
7117;DHT22;3600;48.568;7.870;2023-11-18T12:56:51;7.90;99.90
7117;DHT22;3600;48.568;7.870;2023-11-18T12:59:20;7.90;99.90
7117;DHT22;3600;48.568;7.870;2023-11-18T13:01:47;8.00;99.90
7117;DHT22;3600;48.568;7.870;2023-11-18T13:04:20;8.00;99.90
7117;DHT22;3600;48.568;7.870;2023-11-18T13:06:48;8.00;99.90
7117;DHT22;3600;48.568;7.870;2023-11-18T13:09:22;8.00;99.90
7117;DHT22;3600;48.568;7.870;2023-11-18T13:11:54;8.00;99.90
7117;DHT22;3600;48.568;7.870;2023-11-18T13:14:27;8.00;99.90
7117;DHT22;3600;48.568;7.870;2023-11-18T13:16:54;8.00;99.90
7117;DHT22;3600;48.568;7.870;2023-11-18T13:19:26;8.00;99.90
7117;DHT22;3600;48.568;7.870;2023-11-18T13:22:01;8.00;99.90
7117;DHT22;3600;48.568;7.870;2023-11-18T13:24:30;8.10;99.90
7117;DHT22;3600;48.568;7.870;2023-11-18T13:26:59;8.10;99.90
7117;DHT22;3600;48.568;7.870;2023-11-18T13:29:30;8.10;99.90
7117;DHT22;3600;48.568;7.870;2023-11-18T13:31:59;8.10;99.90
7117;DHT22;3600;48.568;7.870;2023-11-18T13:34:40;8.10;99.90
7117;DHT22;3600;48.568;7.870;2023-11-18T13:37:09;8.10;99.90
7117;DHT22;3600;48.568;7.870;2023-11-18T13:39:39;8.10;99.90
7117;DHT22;3600;48.568;7.870;2023-11-18T13:42:24;8.10;99.90
7117;DHT22;3600;48.568;7.870;2023-11-18T13:45:05;8.10;99.90
7117;DHT22;3600;48.568;7.870;2023-11-18T13:47:38;8.10;99.90
7117;DHT22;3600;48.568;7.870;2023-11-18T13:50:10;8.10;99.90
7117;DHT22;3600;48.568;7.870;2023-11-18T13:52:37;8.20;99.90
7117;DHT22;3600;48.568;7.870;2023-11-18T13:55:06;8.20;99.90
7117;DHT22;3600;48.568;7.870;2023-11-18T13:57:34;8.20;99.90
7117;DHT22;3600;48.568;7.870;2023-11-18T14:00:01;8.20;99.90
7117;DHT22;3600;48.568;7.870;2023-11-18T14:02:28;8.20;99.90
7117;DHT22;3600;48.568;7.870;2023-11-18T14:04:55;8.20;99.90
7117;DHT22;3600;48.568;7.870;2023-11-18T14:07:23;8.20;99.90
7117;DHT22;3600;48.568;7.870;2023-11-18T14:09:51;8.30;99.90
7117;DHT22;3600;48.568;7.870;2023-11-18T14:12:21;8.30;99.90
7117;DHT22;3600;48.568;7.870;2023-11-18T14:14:49;8.30;99.90
7117;DHT22;3600;48.568;7.870;2023-11-18T14:17:16;8.30;99.90
7117;DHT22;3600;48.568;7.870;2023-11-18T14:19:44;8.30;99.90
7117;DHT22;3600;48.568;7.870;2023-11-18T14:22:10;8.20;99.90
7117;DHT22;3600;48.568;7.870;2023-11-18T14:24:37;8.30;99.90
7117;DHT22;3600;48.568;7.870;2023-11-18T14:27:05;8.30;99.90
7117;DHT22;3600;48.568;7.870;2023-11-18T14:29:37;8.30;99.90
7117;DHT22;3600;48.568;7.870;2023-11-18T14:32:05;8.30;99.90
7117;DHT22;3600;48.568;7.870;2023-11-18T14:34:33;8.20;99.90
7117;DHT22;3600;48.568;7.870;2023-11-18T14:37:00;8.30;99.90
7117;DHT22;3600;48.568;7.870;2023-11-18T14:39:28;8.30;99.90
7117;DHT22;3600;48.568;7.870;2023-11-18T14:41:56;8.30;99.90
7117;DHT22;3600;48.568;7.870;2023-11-18T14:44:23;8.30;99.90
7117;DHT22;3600;48.568;7.870;2023-11-18T14:46:50;8.20;99.90
7117;DHT22;3600;48.568;7.870;2023-11-18T14:49:18;8.20;99.90
7117;DHT22;3600;48.568;7.870;2023-11-18T14:51:45;8.20;99.90
7117;DHT22;3600;48.568;7.870;2023-11-18T14:54:12;8.20;99.90
7117;DHT22;3600;48.568;7.870;2023-11-18T14:56:39;8.30;99.90
7117;DHT22;3600;48.568;7.870;2023-11-18T14:59:05;8.30;99.90
7117;DHT22;3600;48.568;7.870;2023-11-18T15:01:34;8.30;99.90
7117;DHT22;3600;48.568;7.870;2023-11-18T15:04:01;8.30;99.90
7117;DHT22;3600;48.568;7.870;2023-11-18T15:06:32;8.30;99.90
7117;DHT22;3600;48.568;7.870;2023-11-18T15:08:59;8.30;99.90
7117;DHT22;3600;48.568;7.870;2023-11-18T15:11:26;8.30;99.90
7117;DHT22;3600;48.568;7.870;2023-11-18T15:13:53;8.30;99.90
7117;DHT22;3600;48.568;7.870;2023-11-18T15:16:20;8.30;99.90
7117;DHT22;3600;48.568;7.870;2023-11-18T15:18:50;8.30;99.90
7117;DHT22;3600;48.568;7.870;2023-11-18T15:21:19;8.30;99.90
7117;DHT22;3600;48.568;7.870;2023-11-18T15:23:47;8.30;99.90
7117;DHT22;3600;48.568;7.870;2023-11-18T15:26:15;8.30;99.90
7117;DHT22;3600;48.568;7.870;2023-11-18T15:28:42;8.30;99.90
7117;DHT22;3600;48.568;7.870;2023-11-18T15:31:09;8.30;99.90
7117;DHT22;3600;48.568;7.870;2023-11-18T15:33:36;8.30;99.90
7117;DHT22;3600;48.568;7.870;2023-11-18T15:36:03;8.30;99.90
7117;DHT22;3600;48.568;7.870;2023-11-18T15:38:30;8.30;99.90
7117;DHT22;3600;48.568;7.870;2023-11-18T15:40:57;8.30;99.90
7117;DHT22;3600;48.568;7.870;2023-11-18T15:43:24;8.30;99.90
7117;DHT22;3600;48.568;7.870;2023-11-18T15:45:50;8.30;99.90
7117;DHT22;3600;48.568;7.870;2023-11-18T15:48:18;8.30;99.90
7117;DHT22;3600;48.568;7.870;2023-11-18T15:50:45;8.20;99.90
7117;DHT22;3600;48.568;7.870;2023-11-18T15:53:12;8.20;99.90
7117;DHT22;3600;48.568;7.870;2023-11-18T15:55:42;8.30;99.90
7117;DHT22;3600;48.568;7.870;2023-11-18T15:58:14;8.30;99.90
7117;DHT22;3600;48.568;7.870;2023-11-18T16:00:41;8.20;99.90
7117;DHT22;3600;48.568;7.870;2023-11-18T16:03:09;8.20;99.90
7117;DHT22;3600;48.568;7.870;2023-11-18T16:05:36;8.20;99.90
7117;DHT22;3600;48.568;7.870;2023-11-18T16:08:30;8.30;99.90
7117;DHT22;3600;48.568;7.870;2023-11-18T16:10:57;8.30;99.90
7117;DHT22;3600;48.568;7.870;2023-11-18T16:13:24;8.20;99.90
7117;DHT22;3600;48.568;7.870;2023-11-18T16:15:51;8.20;99.90
7117;DHT22;3600;48.568;7.870;2023-11-18T16:18:18;8.20;99.90
7117;DHT22;3600;48.568;7.870;2023-11-18T16:20:48;8.20;99.90
7117;DHT22;3600;48.568;7.870;2023-11-18T16:23:15;8.20;99.90
7117;DHT22;3600;48.568;7.870;2023-11-18T16:25:42;8.20;99.90
7117;DHT22;3600;48.568;7.870;2023-11-18T16:28:08;8.20;99.90
7117;DHT22;3600;48.568;7.870;2023-11-18T16:30:36;8.20;99.90
7117;DHT22;3600;48.568;7.870;2023-11-18T16:33:04;8.20;99.90
7117;DHT22;3600;48.568;7.870;2023-11-18T16:35:32;8.20;99.90
7117;DHT22;3600;48.568;7.870;2023-11-18T16:38:01;8.20;99.90
7117;DHT22;3600;48.568;7.870;2023-11-18T16:40:29;8.20;99.90
7117;DHT22;3600;48.568;7.870;2023-11-18T16:43:08;8.20;99.90
7117;DHT22;3600;48.568;7.870;2023-11-18T16:45:35;8.20;99.90
7117;DHT22;3600;48.568;7.870;2023-11-18T16:48:03;8.20;99.90
7117;DHT22;3600;48.568;7.870;2023-11-18T16:50:31;8.30;99.90
7117;DHT22;3600;48.568;7.870;2023-11-18T16:52:58;8.30;99.90
7117;DHT22;3600;48.568;7.870;2023-11-18T16:55:31;8.20;99.90